Time;durP1;ratioP1;P1;durP2;ratioP2;P2;SDS_P1;SDS_P2;PMS_P1;PMS_P2;Temp;Humidity;BMP_temperature;BMP_pressure;BME280_temperature;BME280_humidity;BME280_pressure;Samples;Min_cycle;Max_cycle;Signal;HPM_P1;HPM_P2
2022/07/04 00:00:48;;;;;;;5.95;1.98;;;19.50;90.70;;;;;;5042822;28;20115;-88
2022/07/04 00:03:14;;;;;;;5.40;2.17;;;19.50;90.90;;;;;;5075713;28;20089;-88
2022/07/04 00:05:40;;;;;;;7.28;2.30;;;19.40;90.90;;;;;;5092913;28;20012;-88
2022/07/04 00:08:05;;;;;;;6.10;2.30;;;19.40;90.90;;;;;;5050918;28;20111;-88
2022/07/04 00:10:32;;;;;;;7.70;2.25;;;19.30;90.90;;;;;;5076072;28;20493;-89
2022/07/04 00:12:57;;;;;;;6.93;2.53;;;19.30;90.90;;;;;;5092981;28;20017;-88
2022/07/04 00:15:23;;;;;;;6.03;1.92;;;19.30;91.00;;;;;;5025931;28;20027;-88
2022/07/04 00:17:49;;;;;;;5.80;2.20;;;19.20;91.10;;;;;;5042583;28;20028;-88
2022/07/04 00:20:15;;;;;;;5.80;2.00;;;19.20;91.30;;;;;;5075954;28;20033;-88
2022/07/04 00:22:41;;;;;;;3.78;2.08;;;19.20;91.40;;;;;;5075712;28;20031;-88
2022/07/04 00:25:09;;;;;;;5.97;2.13;;;19.10;91.60;;;;;;5025879;28;20035;-89
2022/07/04 00:27:35;;;;;;;6.50;2.03;;;19.10;91.80;;;;;;5075714;28;20052;-88
2022/07/04 00:30:02;;;;;;;5.65;2.17;;;19.10;91.80;;;;;;5075762;28;20500;-89
2022/07/04 00:32:27;;;;;;;5.65;1.75;;;19.00;92.00;;;;;;5058891;28;20394;-89
2022/07/04 00:34:53;;;;;;;5.07;1.70;;;19.00;92.10;;;;;;5075968;28;20024;-88
2022/07/04 00:37:19;;;;;;;7.30;2.38;;;19.00;92.10;;;;;;5026015;28;20020;-89
2022/07/04 00:40:03;;;;;;;8.35;2.13;;;19.00;92.20;;;;;;5075387;28;20033;-89
2022/07/04 00:42:29;;;;;;;5.82;2.25;;;18.90;92.10;;;;;;5075237;28;20056;-89
2022/07/04 00:44:54;;;;;;;3.55;1.83;;;18.90;92.10;;;;;;5026653;28;20028;-88
2022/07/04 00:47:20;;;;;;;5.53;2.10;;;18.80;92.10;;;;;;5042142;28;20025;-89
2022/07/04 00:49:46;;;;;;;6.40;2.10;;;18.80;92.30;;;;;;5042050;28;20089;-89
2022/07/04 00:52:13;;;;;;;4.85;2.10;;;18.70;92.40;;;;;;5031660;28;20031;-89
2022/07/04 00:54:39;;;;;;;5.22;2.20;;;18.70;92.60;;;;;;5076203;28;20021;-88
2022/07/04 00:57:05;;;;;;;6.72;2.22;;;18.60;92.60;;;;;;5070278;28;20021;-89
2022/07/04 00:59:31;;;;;;;3.72;1.95;;;18.60;92.80;;;;;;5106781;28;20455;-89
2022/07/04 01:01:56;;;;;;;5.60;2.70;;;18.60;93.00;;;;;;5080343;28;20031;-88
2022/07/04 01:04:23;;;;;;;4.43;2.30;;;18.50;93.10;;;;;;5077349;28;20016;-87
2022/07/04 01:06:49;;;;;;;7.93;2.30;;;18.50;93.20;;;;;;5098244;28;20031;-87
2022/07/04 01:09:15;;;;;;;4.70;2.20;;;18.50;93.40;;;;;;5113857;28;20011;-86
2022/07/04 01:11:41;;;;;;;4.22;2.30;;;18.50;93.60;;;;;;5082229;28;20035;-88
2022/07/04 01:14:07;;;;;;;5.40;2.28;;;18.40;93.30;;;;;;5075440;28;20025;-88
2022/07/04 01:16:33;;;;;;;4.93;2.30;;;18.30;93.30;;;;;;5052333;28;20470;-88
2022/07/04 01:18:59;;;;;;;6.65;2.25;;;18.30;93.40;;;;;;5072887;28;20123;-88
2022/07/04 01:21:25;;;;;;;6.13;2.13;;;18.20;93.60;;;;;;5058151;28;20016;-88
2022/07/04 01:23:51;;;;;;;5.22;2.20;;;18.20;93.80;;;;;;5041272;28;20359;-88
2022/07/04 01:26:32;;;;;;;7.20;2.35;;;18.10;93.90;;;;;;5074997;28;20482;-88
2022/07/04 01:28:58;;;;;;;;;;;18.10;94.00;;;;;;5058484;28;20017;-88
2022/07/04 01:31:23;;;;;;;4.32;2.15;;;18.00;94.10;;;;;;5075166;28;19919;-88
2022/07/04 01:33:49;;;;;;;7.55;2.45;;;18.00;94.20;;;;;;5041863;28;20139;-89
2022/07/04 01:36:15;;;;;;;5.90;2.40;;;17.90;94.30;;;;;;5058238;28;20017;-89
2022/07/04 01:38:40;;;;;;;5.07;2.58;;;17.80;94.50;;;;;;5041117;28;20024;-88
2022/07/04 01:41:06;;;;;;;4.43;2.47;;;17.80;94.70;;;;;;5091110;28;20025;-88
2022/07/04 01:46:54;;;;;;;4.10;1.80;;;17.80;95.40;;;;;;5074147;28;20062;-88
2022/07/04 01:49:20;;;;;;;4.43;1.80;;;17.70;95.50;;;;;;5057089;28;20024;-88
2022/07/04 01:51:46;;;;;;;4.43;2.10;;;17.70;95.60;;;;;;5073870;28;20027;-88
2022/07/04 01:54:12;;;;;;;5.60;2.15;;;17.60;95.80;;;;;;5073249;28;20115;-89
2022/07/04 01:56:56;;;;;;;5.70;2.53;;;17.60;95.90;;;;;;5073876;28;20056;-88
2022/07/04 02:01:29;;;;;;;6.45;2.53;;;17.60;96.30;;;;;;5064040;28;20083;-88
2022/07/04 02:02:07;;;;;;;4.95;2.10;;;17.60;96.30;;;;;;5052611;28;20029;-89
2022/07/04 02:04:33;;;;;;;5.93;2.53;;;17.60;96.40;;;;;;5020641;28;20029;-88
2022/07/04 02:07:00;;;;;;;5.18;2.63;;;17.50;96.50;;;;;;5071035;23;20519;-88
2022/07/04 02:09:25;;;;;;;5.75;2.90;;;17.50;96.70;;;;;;5056374;28;20031;-88
2022/07/04 02:14:35;;;;;;;6.85;3.15;;;17.50;96.90;;;;;;5059226;28;20116;-89
2022/07/04 02:17:01;;;;;;;7.32;3.55;;;17.50;97.10;;;;;;5049237;28;20441;-89
2022/07/04 02:19:27;;;;;;;6.68;3.83;;;17.50;97.20;;;;;;5044013;28;20385;-88
2022/07/04 02:21:53;;;;;;;7.93;3.45;;;17.50;97.40;;;;;;5056708;28;20033;-89
2022/07/04 02:24:19;;;;;;;7.82;3.83;;;17.40;97.60;;;;;;5040647;28;20115;-89
2022/07/04 02:26:45;;;;;;;6.47;4.22;;;17.40;97.70;;;;;;5040925;28;20031;-89
2022/07/04 02:29:11;;;;;;;8.65;4.13;;;17.40;97.70;;;;;;5092225;28;20410;-89
2022/07/04 02:31:37;;;;;;;8.32;4.28;;;17.40;97.80;;;;;;5055999;28;20029;-88
2022/07/04 02:34:02;;;;;;;6.85;4.03;;;17.40;97.90;;;;;;5060240;28;20029;-88
2022/07/04 02:36:28;;;;;;;5.57;3.65;;;17.40;98.00;;;;;;5054369;28;20043;-89
2022/07/04 02:38:54;;;;;;;6.55;4.10;;;17.40;98.20;;;;;;5080024;28;20119;-89
2022/07/04 02:41:19;;;;;;;7.18;3.78;;;17.40;98.30;;;;;;5040487;28;20024;-88
2022/07/04 02:43:45;;;;;;;6.10;4.03;;;17.30;98.40;;;;;;5039902;28;20036;-89
2022/07/04 02:46:11;;;;;;;5.65;3.72;;;17.30;98.40;;;;;;5039744;28;20028;-88
2022/07/04 02:48:37;;;;;;;6.90;4.30;;;17.30;98.60;;;;;;5056826;28;20024;-89
2022/07/04 02:51:02;;;;;;;8.63;4.40;;;17.30;98.70;;;;;;5040214;28;20024;-88
2022/07/04 02:53:28;;;;;;;8.00;4.10;;;17.20;98.80;;;;;;5042006;28;20094;-88
2022/07/04 02:55:54;;;;;;;6.90;3.70;;;17.20;98.80;;;;;;5048043;28;20021;-88
2022/07/04 02:58:19;;;;;;;7.57;3.47;;;17.20;98.80;;;;;;5039738;28;20049;-88
2022/07/04 03:00:45;;;;;;;3.97;3.13;;;17.20;98.70;;;;;;5046192;28;20449;-88
2022/07/04 03:03:11;;;;;;;6.68;4.00;;;17.20;98.70;;;;;;5044453;28;20032;-88
2022/07/04 03:05:36;;;;;;;6.40;4.35;;;17.10;98.70;;;;;;5094533;28;20108;-88
2022/07/04 03:08:02;;;;;;;7.05;4.50;;;17.10;98.70;;;;;;5077951;28;20028;-88
2022/07/04 03:10:28;;;;;;;8.52;4.70;;;17.10;98.80;;;;;;5055914;28;20029;-88
2022/07/04 03:12:53;;;;;;;6.22;4.30;;;17.10;98.90;;;;;;5044316;28;20418;-89
2022/07/04 03:15:19;;;;;;;6.35;4.55;;;17.00;98.90;;;;;;5077253;28;20021;-88
2022/07/04 03:17:45;;;;;;;6.70;4.75;;;17.00;99.00;;;;;;5077539;28;20029;-88
2022/07/04 03:20:10;;;;;;;6.60;4.43;;;17.00;99.20;;;;;;5048400;28;20174;-88
2022/07/04 03:22:36;;;;;;;6.03;4.60;;;16.90;99.40;;;;;;5045587;28;20123;-89
2022/07/04 03:25:02;;;;;;;6.47;4.90;;;16.90;99.50;;;;;;5061308;28;20032;-89
2022/07/04 03:27:28;;;;;;;6.22;4.07;;;16.90;99.70;;;;;;5045327;28;20024;-89
2022/07/04 03:30:03;;;;;;;9.43;5.10;;;16.90;99.70;;;;;;5060611;28;20029;-89
2022/07/04 03:32:28;;;;;;;7.05;4.93;;;16.80;99.60;;;;;;5042289;28;20017;-87
2022/07/04 03:34:55;;;;;;;7.65;4.68;;;16.80;99.70;;;;;;5033765;28;20024;-88
2022/07/04 03:37:21;;;;;;;8.23;5.00;;;16.80;99.80;;;;;;5044168;28;20116;-89
2022/07/04 03:39:47;;;;;;;11.52;4.97;;;16.80;99.90;;;;;;5043627;28;20048;-89
2022/07/04 03:42:12;;;;;;;8.45;5.82;;;16.80;99.90;;;;;;5044020;28;20077;-89
2022/07/04 03:44:38;;;;;;;7.32;4.57;;;16.70;99.90;;;;;;5061240;28;20025;-89
2022/07/04 03:47:04;;;;;;;8.00;4.65;;;16.70;99.90;;;;;;5044055;28;20078;-88
2022/07/04 03:49:29;;;;;;;5.85;3.97;;;16.70;99.90;;;;;;5056510;28;20029;-89
2022/07/04 03:51:55;;;;;;;10.70;5.47;;;16.70;99.90;;;;;;5039495;28;20032;-88
2022/07/04 03:54:20;;;;;;;9.00;5.53;;;16.60;99.90;;;;;;5047394;28;20029;-88
2022/07/04 03:56:46;;;;;;;10.40;5.97;;;16.60;99.90;;;;;;5043251;28;20066;-89
2022/07/04 03:59:12;;;;;;;9.85;5.65;;;16.60;99.90;;;;;;5043252;28;20119;-88
2022/07/04 04:01:38;;;;;;;9.40;5.10;;;16.60;99.90;;;;;;5045866;28;20473;-89
2022/07/04 04:06:48;;;;;;;7.93;4.20;;;16.50;99.90;;;;;;5063474;28;20054;-89
2022/07/04 04:09:18;;;;;;;7.55;4.38;;;16.50;99.90;;;;;;5059886;28;20032;-88
2022/07/04 04:11:43;;;;;;;9.63;5.22;;;16.50;99.90;;;;;;5075395;28;20396;-89
2022/07/04 04:14:10;;;;;;;8.88;4.95;;;16.50;99.90;;;;;;5043589;28;20017;-90
2022/07/04 04:16:35;;;;;;;6.93;5.00;;;16.40;99.90;;;;;;5042069;28;20017;-88
2022/07/04 04:19:01;;;;;;;8.80;5.43;;;16.50;99.90;;;;;;5054929;28;20029;-89
2022/07/04 04:21:27;;;;;;;7.53;5.25;;;16.40;99.90;;;;;;5041357;28;20079;-90
2022/07/04 04:23:52;;;;;;;10.40;6.00;;;16.40;99.90;;;;;;5059760;28;20085;-87
2022/07/04 04:26:18;;;;;;;9.20;5.20;;;16.40;99.90;;;;;;5048715;28;20498;-87
2022/07/04 04:28:54;;;;;;;8.88;5.90;;;16.40;99.90;;;;;;5047134;28;20497;-89
2022/07/04 04:31:19;;;;;;;11.90;6.57;;;16.40;99.90;;;;;;5059435;28;20079;-88
2022/07/04 04:33:45;;;;;;;12.45;6.90;;;16.40;99.90;;;;;;5053406;28;20465;-89
2022/07/04 04:36:11;;;;;;;10.55;5.88;;;16.40;99.90;;;;;;5041964;28;20109;-88
2022/07/04 04:38:37;;;;;;;9.45;5.72;;;16.40;99.90;;;;;;5058901;28;20027;-88
2022/07/04 04:41:03;;;;;;;8.70;5.80;;;16.40;99.90;;;;;;5073560;28;20527;-89
2022/07/04 04:43:29;;;;;;;9.30;5.65;;;16.40;99.90;;;;;;5075552;28;20051;-90
2022/07/04 04:45:54;;;;;;;7.72;5.00;;;16.50;99.90;;;;;;5045135;28;20091;-89
2022/07/04 04:48:20;;;;;;;8.98;5.57;;;16.50;99.90;;;;;;5058241;28;20028;-89
2022/07/04 04:50:46;;;;;;;10.65;5.78;;;16.50;99.90;;;;;;5041300;28;20031;-89
2022/07/04 04:53:12;;;;;;;9.57;5.63;;;16.50;99.90;;;;;;5054759;28;20052;-89
2022/07/04 04:55:38;;;;;;;9.27;5.65;;;16.50;99.90;;;;;;5057417;28;20115;-89
2022/07/04 04:58:04;;;;;;;9.77;5.68;;;16.40;99.90;;;;;;5042905;28;20017;-88
2022/07/04 05:00:30;;;;;;;8.90;5.70;;;16.40;99.90;;;;;;5058009;28;20021;-89
2022/07/04 05:02:56;;;;;;;8.15;5.20;;;16.50;99.90;;;;;;5057896;28;20362;-89
2022/07/04 05:05:21;;;;;;;7.80;4.88;;;16.40;99.90;;;;;;5042084;28;20027;-90
2022/07/04 05:07:47;;;;;;;13.65;6.47;;;16.50;99.90;;;;;;5055180;28;20048;-91
2022/07/04 05:10:13;;;;;;;10.75;5.43;;;16.50;99.90;;;;;;5042053;28;20083;-89
2022/07/04 05:12:41;;;;;;;9.95;5.30;;;16.50;99.90;;;;;;5058388;28;20025;-89
2022/07/04 05:15:08;;;;;;;10.73;5.78;;;16.50;99.90;;;;;;5041760;28;20021;-90
2022/07/04 05:17:33;;;;;;;10.57;5.50;;;16.50;99.90;;;;;;5058993;28;20025;-88
2022/07/04 05:19:59;;;;;;;9.85;5.38;;;16.50;99.90;;;;;;5069178;28;20088;-89
2022/07/04 05:22:25;;;;;;;9.85;5.40;;;16.50;99.90;;;;;;5092657;28;20055;-89
2022/07/04 05:24:50;;;;;;;9.88;5.32;;;16.50;99.90;;;;;;5044415;28;20474;-90
2022/07/04 05:27:16;;;;;;;8.93;4.75;;;16.50;99.90;;;;;;5075009;28;20028;-89
2022/07/04 05:29:42;;;;;;;11.60;5.80;;;16.50;99.90;;;;;;5071504;28;20029;-90
2022/07/04 05:32:16;;;;;;;8.57;5.43;;;16.50;99.90;;;;;;5085925;28;20017;-90
2022/07/04 05:34:42;;;;;;;9.63;5.68;;;16.60;99.90;;;;;;5073867;28;20038;-90
2022/07/04 05:37:08;;;;;;;8.48;5.47;;;16.60;99.90;;;;;;5037936;28;20025;-89
2022/07/04 05:39:34;;;;;;;9.02;5.43;;;16.60;99.90;;;;;;5054320;28;20025;-90
2022/07/04 05:45:21;;;;;;;12.35;5.78;;;16.70;99.90;;;;;;5073017;28;20406;-90
2022/07/04 05:47:47;;;;;;;10.18;5.30;;;16.70;99.90;;;;;;5057702;28;20028;-90
2022/07/04 05:50:13;;;;;;;8.68;5.00;;;16.80;99.90;;;;;;5059571;28;20021;-89
2022/07/04 05:52:38;;;;;;;11.93;5.50;;;16.70;99.90;;;;;;5038135;28;20059;-89
2022/07/04 05:55:06;;;;;;;9.55;5.13;;;16.80;99.90;;;;;;5071615;28;20495;-90
2022/07/04 05:57:32;;;;;;;12.82;4.95;;;16.80;99.90;;;;;;5038484;28;20488;-90
2022/07/04 05:59:57;;;;;;;7.68;4.57;;;16.90;99.90;;;;;;5036319;28;20025;-89
2022/07/04 06:02:23;;;;;;;11.88;4.57;;;16.90;99.90;;;;;;5037258;28;20032;-90
2022/07/04 06:04:49;;;;;;;9.38;4.75;;;17.00;99.90;;;;;;5055476;28;20013;-90
2022/07/04 06:07:15;;;;;;;12.40;4.93;;;17.00;99.90;;;;;;5082574;28;20109;-90
2022/07/04 06:09:40;;;;;;;14.60;5.13;;;17.10;99.90;;;;;;5039812;28;20036;-89
2022/07/04 06:12:06;;;;;;;8.88;4.55;;;17.10;99.90;;;;;;5057186;28;20017;-89
2022/07/04 06:14:32;;;;;;;7.80;4.15;;;17.10;99.90;;;;;;5053081;28;20029;-90
2022/07/04 06:16:58;;;;;;;9.98;4.70;;;17.20;99.90;;;;;;5073913;28;20424;-90
2022/07/04 06:19:23;;;;;;;10.05;4.95;;;17.20;99.90;;;;;;5063046;28;20024;-90
2022/07/04 06:21:49;;;;;;;9.35;4.78;;;17.20;99.90;;;;;;5057165;28;20451;-90
2022/07/04 06:24:15;;;;;;;10.48;4.63;;;17.30;99.90;;;;;;5065440;28;20024;-90
2022/07/04 06:26:41;;;;;;;8.65;4.18;;;17.30;99.90;;;;;;5073135;28;20028;-90
2022/07/04 06:29:07;;;;;;;8.75;4.10;;;17.30;99.90;;;;;;5040204;28;20035;-90
2022/07/04 06:31:33;;;;;;;8.30;3.83;;;17.40;99.90;;;;;;5040311;28;20434;-90
2022/07/04 06:36:45;;;;;;;8.70;4.18;;;17.50;99.90;;;;;;5077500;28;20508;-89
2022/07/04 06:39:11;;;;;;;9.20;4.60;;;17.50;99.90;;;;;;5067972;28;20020;-90
2022/07/04 06:41:37;;;;;;;10.93;4.47;;;17.60;99.90;;;;;;5056966;28;20381;-90
2022/07/04 06:44:05;;;;;;;8.40;4.60;;;17.60;99.90;;;;;;5073647;28;20021;-89
2022/07/04 06:46:30;;;;;;;10.20;4.75;;;17.70;99.90;;;;;;5064473;28;20060;-89
2022/07/04 06:48:56;;;;;;;7.85;5.15;;;17.70;99.90;;;;;;5041299;28;20048;-90
2022/07/04 06:51:23;;;;;;;11.20;4.80;;;17.70;99.90;;;;;;5048874;28;20075;-90
2022/07/04 06:53:50;;;;;;;9.57;5.10;;;17.80;99.90;;;;;;5052175;28;20024;-90
2022/07/04 06:56:16;;;;;;;12.18;4.72;;;17.90;99.90;;;;;;5073083;28;20033;-89
2022/07/04 06:59:00;;;;;;;7.50;4.78;;;17.90;99.90;;;;;;5060934;28;20059;-89
2022/07/04 07:01:26;;;;;;;8.50;4.45;;;17.90;99.90;;;;;;5060048;28;20021;-89
2022/07/04 07:03:51;;;;;;;11.82;4.40;;;18.00;99.90;;;;;;5060361;28;20095;-90
2022/07/04 07:06:17;;;;;;;11.25;5.10;;;18.00;99.90;;;;;;5029851;28;20391;-90
2022/07/04 07:08:43;;;;;;;13.88;4.97;;;18.00;99.90;;;;;;5068857;28;20036;-89
2022/07/04 07:11:14;;;;;;;9.13;5.10;;;18.00;99.90;;;;;;5056370;28;20025;-90
2022/07/04 07:17:02;;;;;;;8.90;5.28;;;18.10;99.90;;;;;;5073099;28;20055;-90
2022/07/04 07:19:28;;;;;;;9.40;4.80;;;18.20;99.90;;;;;;5039447;28;20025;-90
2022/07/04 07:21:54;;;;;;;9.18;4.03;;;18.30;99.90;;;;;;5104072;28;20031;-90
2022/07/04 07:24:19;;;;;;;7.60;4.10;;;18.40;99.90;;;;;;5046542;28;20056;-89
2022/07/04 07:26:45;;;;;;;9.50;4.63;;;18.40;99.90;;;;;;5039394;28;20032;-90
2022/07/04 07:29:11;;;;;;;10.90;4.43;;;18.50;99.90;;;;;;5039505;28;20198;-89
2022/07/04 07:31:36;;;;;;;10.30;4.78;;;18.60;99.90;;;;;;5050928;28;20024;-89
2022/07/04 07:34:02;;;;;;;10.50;4.25;;;18.60;99.90;;;;;;5039201;28;20027;-89
2022/07/04 07:36:28;;;;;;;12.63;4.72;;;18.70;99.90;;;;;;5041988;28;20030;-90
2022/07/04 07:38:55;;;;;;;12.75;5.57;;;18.80;99.90;;;;;;5039161;28;20024;-88
2022/07/04 07:41:21;;;;;;;7.82;5.10;;;18.80;99.90;;;;;;5039522;28;20016;-89
2022/07/04 07:43:47;;;;;;;10.07;4.93;;;18.80;99.90;;;;;;5048417;28;20043;-89
2022/07/04 07:46:12;;;;;;;9.70;4.90;;;18.90;99.90;;;;;;5037562;28;20504;-90
2022/07/04 07:48:38;;;;;;;10.30;5.10;;;19.00;99.90;;;;;;5079629;28;20024;-90
2022/07/04 07:51:04;;;;;;;12.95;5.47;;;19.00;99.90;;;;;;5077364;28;20114;-90
2022/07/04 07:53:29;;;;;;;11.68;5.95;;;19.10;99.90;;;;;;5045669;28;20458;-90
2022/07/04 07:55:55;;;;;;;11.50;6.35;;;19.10;99.90;;;;;;5076247;28;20025;-90
2022/07/04 07:58:21;;;;;;;17.63;6.57;;;19.20;99.90;;;;;;5061919;28;20535;-89
2022/07/04 08:00:47;;;;;;;13.48;6.45;;;19.20;99.90;;;;;;5059843;28;20098;-90
2022/07/04 08:05:57;;;;;;;11.85;5.13;;;19.30;99.90;;;;;;5079006;28;20120;-89
2022/07/04 08:08:23;;;;;;;10.73;4.90;;;19.40;99.90;;;;;;5055906;28;20487;-88
2022/07/04 08:10:50;;;;;;;11.82;5.80;;;19.50;99.90;;;;;;5044242;28;20041;-88
2022/07/04 08:13:15;;;;;;;12.20;5.90;;;19.60;99.90;;;;;;5062553;28;20030;-88
2022/07/04 08:15:41;;;;;;;13.27;5.65;;;19.70;99.90;;;;;;5038773;28;20071;-88
2022/07/04 08:18:07;;;;;;;11.82;5.85;;;19.70;99.90;;;;;;5091104;28;20029;-89
2022/07/04 08:20:33;;;;;;;10.40;5.18;;;19.80;99.90;;;;;;5060803;28;20479;-88
2022/07/04 08:22:58;;;;;;;11.50;6.10;;;19.80;99.90;;;;;;5036588;28;20371;-88
2022/07/04 08:25:24;;;;;;;12.80;5.80;;;19.90;99.90;;;;;;5035910;28;20108;-88
2022/07/04 08:27:50;;;;;;;13.00;5.72;;;19.90;99.90;;;;;;5036062;28;20471;-88
2022/07/04 08:30:15;;;;;;;9.93;5.40;;;20.00;99.90;;;;;;5020195;28;20037;-89
2022/07/04 08:32:41;;;;;;;9.55;5.75;;;20.00;99.90;;;;;;5036990;28;20025;-88
2022/07/04 08:35:07;;;;;;;10.65;4.75;;;20.10;99.90;;;;;;5019490;28;20121;-88
2022/07/04 08:37:33;;;;;;;11.00;4.63;;;20.10;99.90;;;;;;5022194;28;20515;-88
2022/07/04 08:43:23;;;;;;;13.32;4.95;;;20.20;99.90;;;;;;5037811;28;20091;-89
2022/07/04 08:45:50;;;;;;;10.70;5.68;;;20.40;99.90;;;;;;5057426;28;20079;-90
2022/07/04 08:48:19;;;;;;;10.13;5.65;;;20.40;99.90;;;;;;5036447;28;20018;-90
2022/07/04 08:50:51;;;;;;;12.77;5.07;;;20.40;99.90;;;;;;5038040;28;20033;-90
2022/07/04 08:53:20;;;;;;;10.45;5.43;;;20.50;99.90;;;;;;5036062;28;20017;-90
2022/07/04 08:58:33;;;;;;;11.95;5.40;;;20.60;99.90;;;;;;5037133;28;20442;-90
2022/07/04 09:01:14;;;;;;;9.25;4.78;;;20.60;99.90;;;;;;5035004;28;20048;-88
2022/07/04 09:03:42;;;;;;;10.07;3.83;;;20.60;99.90;;;;;;5015731;28;20112;-88
2022/07/04 09:06:08;;;;;;;14.15;4.07;;;20.70;99.90;;;;;;5027745;28;20088;-88
2022/07/04 09:08:34;;;;;;;12.98;4.70;;;20.70;99.90;;;;;;5045142;28;20067;-88
2022/07/04 09:11:01;;;;;;;11.55;3.97;;;20.70;99.90;;;;;;5074903;28;20451;-90
2022/07/04 09:13:27;;;;;;;10.65;4.28;;;20.80;99.90;;;;;;5059198;28;20024;-89
2022/07/04 09:15:53;;;;;;;8.82;4.07;;;20.90;99.90;;;;;;5049439;28;20024;-89
2022/07/04 09:18:33;;;;;;;12.18;4.22;;;20.90;99.90;;;;;;5092200;28;20025;-90
2022/07/04 09:21:05;;;;;;;15.02;4.47;;;20.90;99.90;;;;;;5067613;28;20067;-90
2022/07/04 09:23:33;;;;;;;13.45;4.47;;;20.90;99.90;;;;;;5058358;28;20063;-90
2022/07/04 09:26:18;;;;;;;8.98;4.57;;;21.00;99.90;;;;;;5076321;28;20024;-90
2022/07/04 09:28:51;;;;;;;9.90;4.32;;;21.00;99.90;;;;;;5069470;28;20040;-90
2022/07/04 09:31:22;;;;;;;9.50;3.60;;;21.10;99.90;;;;;;5070208;28;20024;-90
2022/07/04 09:33:53;;;;;;;7.22;3.00;;;21.10;99.90;;;;;;5069452;28;20021;-90
2022/07/04 09:36:21;;;;;;;10.07;3.90;;;21.10;99.90;;;;;;5062095;28;20046;-89
2022/07/04 09:39:24;;;;;;;9.90;3.72;;;21.20;99.90;;;;;;5073952;28;20021;-89
2022/07/04 09:42:02;;;;;;;9.45;3.53;;;21.20;99.90;;;;;;5070378;28;20025;-90
2022/07/04 09:44:49;;;;;;;7.75;3.08;;;21.30;99.90;;;;;;5070878;28;20019;-90
2022/07/04 09:47:27;;;;;;;10.75;3.63;;;21.30;99.90;;;;;;5057592;28;20017;-90
2022/07/04 09:50:06;;;;;;;10.48;3.40;;;21.40;99.90;;;;;;5061389;28;20036;-89
2022/07/04 09:52:53;;;;;;;6.70;3.15;;;21.40;99.90;;;;;;5065366;28;20024;-89
2022/07/04 09:55:28;;;;;;;7.32;3.17;;;21.50;99.90;;;;;;5075446;28;20485;-89
2022/07/04 09:57:57;;;;;;;10.00;3.13;;;21.60;99.90;;;;;;5064711;28;20036;-89
2022/07/04 10:00:23;;;;;;;6.60;2.60;;;21.70;99.90;;;;;;5075016;28;20017;-89
2022/07/04 10:02:50;;;;;;;7.80;2.55;;;21.70;99.90;;;;;;5066713;28;20499;-89
2022/07/04 10:05:25;;;;;;;6.25;2.22;;;21.80;99.90;;;;;;5053864;28;20086;-89
2022/07/04 10:07:53;;;;;;;8.30;3.55;;;21.90;99.80;;;;;;5067379;28;20125;-88
2022/07/04 10:10:32;;;;;;;8.52;2.80;;;21.90;99.70;;;;;;5056917;28;20146;-89
2022/07/04 10:13:07;;;;;;;7.30;2.10;;;22.00;99.60;;;;;;5073644;28;20040;-90
2022/07/04 10:15:34;;;;;;;6.55;1.92;;;22.10;99.30;;;;;;5060352;28;20028;-90
2022/07/04 10:18:00;;;;;;;6.28;1.90;;;22.10;99.00;;;;;;5041572;28;20112;-92
2022/07/04 10:20:26;;;;;;;6.05;1.85;;;22.10;98.60;;;;;;5086381;28;20025;-93
2022/07/04 10:22:52;;;;;;;7.68;2.55;;;22.10;98.40;;;;;;5070791;28;20032;-93
2022/07/04 10:25:18;;;;;;;7.68;2.67;;;22.20;98.00;;;;;;5067421;28;20043;-93
2022/07/04 10:27:44;;;;;;;6.30;2.15;;;22.20;97.80;;;;;;5060239;28;20378;-93
2022/07/04 10:30:15;;;;;;;6.35;2.30;;;22.20;97.60;;;;;;5074328;28;20492;-93
2022/07/04 10:32:43;;;;;;;5.55;2.42;;;22.20;97.00;;;;;;5060772;28;20112;-93
2022/07/04 10:35:12;;;;;;;7.90;2.08;;;22.20;96.90;;;;;;5068010;28;20070;-93
2022/07/04 10:38:02;;;;;;;6.05;2.03;;;22.30;96.90;;;;;;5042238;28;20025;-92
2022/07/04 10:40:43;;;;;;;5.53;2.22;;;22.30;96.80;;;;;;5074603;28;20092;-92
2022/07/04 10:43:33;;;;;;;4.93;1.83;;;22.30;96.20;;;;;;5044853;28;20458;-91
2022/07/04 10:46:10;;;;;;;7.22;2.17;;;22.30;95.90;;;;;;5092264;28;20047;-90
2022/07/04 10:48:35;;;;;;;5.47;1.40;;;22.30;95.70;;;;;;5058478;28;20023;-90
2022/07/04 10:51:06;;;;;;;4.32;2.08;;;22.20;95.50;;;;;;5074809;28;20032;-90
2022/07/04 10:53:39;;;;;;;4.25;1.85;;;22.30;95.40;;;;;;5045743;28;20025;-90
2022/07/04 10:56:38;;;;;;;6.68;1.95;;;22.30;95.20;;;;;;5052344;28;20052;-90
2022/07/04 10:59:19;;;;;;;7.70;1.73;;;22.20;95.20;;;;;;5041258;28;20041;-91
2022/07/04 11:02:03;;;;;;;10.90;2.40;;;22.30;95.20;;;;;;5060439;28;20020;-90
2022/07/04 11:04:51;;;;;;;6.65;1.27;;;22.40;95.30;;;;;;5095990;28;20020;-90
2022/07/04 11:07:20;;;;;;;4.13;1.77;;;22.40;95.30;;;;;;5069452;28;20036;-90
2022/07/04 11:09:47;;;;;;;4.97;1.65;;;22.50;95.20;;;;;;5074845;28;20043;-91
2022/07/04 11:12:14;;;;;;;5.72;2.00;;;22.50;95.10;;;;;;5064533;28;20021;-90
2022/07/04 11:14:49;;;;;;;4.75;1.80;;;22.60;95.00;;;;;;5060944;28;20078;-90
2022/07/04 11:17:33;;;;;;;3.20;1.70;;;22.70;95.10;;;;;;5076383;28;20576;-90
2022/07/04 11:20:06;;;;;;;8.35;2.03;;;22.80;95.00;;;;;;5063671;28;20032;-89
2022/07/04 11:22:33;;;;;;;3.92;1.80;;;22.90;94.70;;;;;;5038533;28;20025;-90
2022/07/04 11:24:59;;;;;;;3.20;1.52;;;23.00;94.60;;;;;;5046355;28;20063;-90
2022/07/04 11:27:24;;;;;;;4.95;1.73;;;23.10;94.60;;;;;;5078632;28;20025;-90
2022/07/04 11:29:54;;;;;;;3.55;1.50;;;23.10;94.70;;;;;;5070168;28;20035;-91
2022/07/04 11:32:21;;;;;;;4.90;1.57;;;23.20;94.60;;;;;;5045380;28;20031;-90
2022/07/04 11:34:48;;;;;;;3.42;1.40;;;23.30;94.00;;;;;;5085241;28;20111;-90
2022/07/04 11:37:14;;;;;;;4.78;1.67;;;23.30;93.80;;;;;;5078785;28;20032;-90
2022/07/04 11:39:40;;;;;;;3.22;1.10;;;23.40;93.40;;;;;;5062350;28;20111;-89
2022/07/04 11:45:02;;;;;;;5.22;1.50;;;23.60;92.60;;;;;;5077688;28;20125;-90
2022/07/04 11:47:43;;;;;;;4.18;1.60;;;23.60;91.70;;;;;;5061133;28;20029;-90
2022/07/04 11:50:14;;;;;;;3.30;1.40;;;23.70;91.90;;;;;;5069201;28;20099;-90
2022/07/04 11:52:46;;;;;;;6.53;1.08;;;23.80;91.90;;;;;;5069407;28;20024;-89
2022/07/04 11:55:14;;;;;;;5.00;1.55;;;23.80;92.00;;;;;;5062808;28;20025;-91
2022/07/04 11:57:41;;;;;;;5.90;1.42;;;23.90;91.90;;;;;;5071819;28;20017;-91
2022/07/04 12:00:10;;;;;;;5.07;1.58;;;24.00;91.80;;;;;;5078198;28;20056;-91
2022/07/04 12:02:37;;;;;;;2.78;1.48;;;24.10;91.90;;;;;;5046216;28;20021;-90
2022/07/04 12:05:06;;;;;;;5.45;1.60;;;24.10;92.20;;;;;;5078951;28;20082;-91
2022/07/04 12:07:33;;;;;;;4.72;1.60;;;24.20;92.20;;;;;;5079405;28;20493;-91
2022/07/04 12:10:08;;;;;;;4.28;1.33;;;24.30;92.10;;;;;;5095689;28;20040;-91
2022/07/04 12:12:34;;;;;;;2.25;1.00;;;24.30;91.90;;;;;;5067951;28;20027;-91
2022/07/04 12:15:03;;;;;;;4.65;1.50;;;24.40;91.50;;;;;;5049415;28;20028;-90
2022/07/04 12:17:54;;;;;;;3.78;1.70;;;24.50;91.20;;;;;;5060620;28;20008;-90
2022/07/04 12:20:21;;;;;;;4.55;1.40;;;24.50;90.90;;;;;;5059739;28;20551;-90
2022/07/04 12:22:54;;;;;;;5.53;1.60;;;24.50;90.70;;;;;;5070244;28;20056;-91
2022/07/04 12:25:29;;;;;;;5.90;1.38;;;24.60;90.30;;;;;;5059993;28;20105;-91
2022/07/04 12:27:56;;;;;;;5.93;1.83;;;24.70;90.20;;;;;;5059986;28;20031;-91
2022/07/04 12:30:22;;;;;;;3.22;1.73;;;24.70;90.10;;;;;;5072477;28;20033;-91
2022/07/04 12:32:56;;;;;;;3.40;1.50;;;24.80;89.40;;;;;;5059925;28;20043;-90
2022/07/04 12:35:44;;;;;;;4.45;1.67;;;24.80;89.00;;;;;;5059642;28;20020;-91
2022/07/04 12:38:14;;;;;;;3.92;2.00;;;24.90;88.90;;;;;;5066023;28;20439;-91
2022/07/04 12:41:15;;;;;;;2.15;1.23;;;24.90;88.30;;;;;;5077979;28;20032;-91
2022/07/04 12:43:43;;;;;;;3.72;1.65;;;25.00;87.80;;;;;;5042670;28;20032;-91
2022/07/04 12:46:30;;;;;;;2.88;1.30;;;25.00;86.70;;;;;;5092712;28;20025;-90
2022/07/04 12:48:57;;;;;;;3.05;1.17;;;25.00;85.70;;;;;;5058634;28;20040;-90
2022/07/04 12:51:25;;;;;;;3.65;1.60;;;25.10;86.10;;;;;;5059475;28;20028;-91
2022/07/04 12:53:52;;;;;;;4.57;1.38;;;25.10;85.00;;;;;;5092861;28;20028;-91
2022/07/04 12:56:28;;;;;;;3.85;1.30;;;25.20;84.20;;;;;;5059014;28;20024;-90
2022/07/04 12:58:54;;;;;;;2.65;1.00;;;25.20;84.30;;;;;;5092573;28;20044;-90
2022/07/04 13:01:20;;;;;;;2.58;1.27;;;25.20;82.70;;;;;;5059566;28;20501;-90
2022/07/04 13:03:46;;;;;;;5.53;1.10;;;25.20;82.30;;;;;;5042226;28;20020;-91
2022/07/04 13:06:12;;;;;;;2.67;1.17;;;25.30;82.60;;;;;;5043789;28;20466;-90
2022/07/04 13:08:37;;;;;;;2.22;1.10;;;25.30;82.40;;;;;;5059463;28;20379;-91
2022/07/04 13:13:47;;;;;;;3.17;1.20;;;25.40;79.70;;;;;;5062062;28;20090;-91
2022/07/04 13:16:17;;;;;;;5.03;1.60;;;25.40;79.20;;;;;;5051890;28;20104;-91
2022/07/04 13:18:43;;;;;;;4.38;1.38;;;25.40;78.40;;;;;;5049625;28;20530;-91
2022/07/04 13:21:08;;;;;;;2.72;1.20;;;25.50;77.40;;;;;;5082238;28;20114;-91
2022/07/04 13:23:34;;;;;;;3.83;1.10;;;25.50;77.50;;;;;;5037666;28;20021;-90